Time;durP1;ratioP1;P1;durP2;ratioP2;P2;SDS_P1;SDS_P2;PMS_P1;PMS_P2;Temp;Humidity;BMP_temperature;BMP_pressure;BME280_temperature;BME280_humidity;BME280_pressure;Samples;Min_cycle;Max_cycle;Signal;HPM_P1;HPM_P2
2022/08/13 00:00:03;;;;;;;0.95;0.43;;;22.70;52.00;;;;;;4711338;30;20053;-72
2022/08/13 00:02:42;;;;;;;1.63;0.57;;;22.60;52.00;;;;;;4695792;30;20071;-72
2022/08/13 00:05:11;;;;;;;1.35;0.40;;;22.60;52.20;;;;;;4709575;30;20501;-72
2022/08/13 00:07:39;;;;;;;1.60;0.30;;;22.50;52.30;;;;;;4710496;30;20057;-72
2022/08/13 00:10:19;;;;;;;0.80;0.30;;;22.50;52.40;;;;;;4697151;30;20049;-72
2022/08/13 00:13:00;;;;;;;0.60;0.40;;;22.40;52.50;;;;;;4711683;30;20053;-72
2022/08/13 00:15:38;;;;;;;2.00;0.40;;;22.40;52.70;;;;;;4708198;30;20507;-72
2022/08/13 00:18:29;;;;;;;1.00;0.45;;;22.30;52.70;;;;;;4698016;30;20418;-72
2022/08/13 00:21:00;;;;;;;0.82;0.38;;;22.30;52.90;;;;;;4712743;30;20053;-72
2022/08/13 00:23:29;;;;;;;2.25;0.80;;;22.20;52.90;;;;;;4707104;30;20046;-72
2022/08/13 00:26:05;;;;;;;0.80;0.50;;;22.20;53.20;;;;;;4710680;30;20049;-72
2022/08/13 00:28:43;;;;;;;0.98;0.40;;;22.10;53.40;;;;;;4709144;30;20050;-72
2022/08/13 00:31:16;;;;;;;1.48;0.50;;;22.10;53.50;;;;;;4692443;30;20066;-72
2022/08/13 00:33:43;;;;;;;1.00;0.60;;;22.10;53.60;;;;;;4691592;30;20045;-72
2022/08/13 00:36:11;;;;;;;1.20;0.40;;;22.00;53.50;;;;;;4707719;30;20053;-72
2022/08/13 00:38:38;;;;;;;1.20;0.30;;;22.00;53.70;;;;;;4690530;30;20379;-72
2022/08/13 00:41:06;;;;;;;2.05;0.40;;;22.00;53.70;;;;;;4703499;30;20054;-72
2022/08/13 00:43:33;;;;;;;2.25;0.30;;;21.90;53.70;;;;;;4689047;30;20439;-72
2022/08/13 00:46:02;;;;;;;0.90;0.52;;;21.90;53.80;;;;;;4702667;30;20053;-73
2022/08/13 00:48:46;;;;;;;1.42;0.40;;;21.80;53.90;;;;;;4683865;30;20054;-72
2022/08/13 00:51:13;;;;;;;0.98;0.38;;;21.80;54.00;;;;;;4688354;30;20926;-73
2022/08/13 00:53:40;;;;;;;1.50;0.35;;;21.80;54.00;;;;;;4691349;30;20423;-72
2022/08/13 00:56:10;;;;;;;0.45;0.30;;;21.70;54.10;;;;;;4703884;30;20042;-73
2022/08/13 00:58:38;;;;;;;1.67;0.40;;;21.70;54.10;;;;;;4690056;30;20038;-73
2022/08/13 01:01:06;;;;;;;0.88;0.38;;;21.70;54.20;;;;;;4691461;30;20368;-73
2022/08/13 01:03:35;;;;;;;1.17;0.40;;;21.70;54.30;;;;;;4695121;30;20430;-72
2022/08/13 01:06:04;;;;;;;0.90;0.40;;;21.70;54.40;;;;;;4690448;30;20029;-72
2022/08/13 01:08:34;;;;;;;1.70;0.55;;;21.60;54.20;;;;;;4688460;30;20045;-72
2022/08/13 01:11:04;;;;;;;1.10;0.30;;;21.60;54.50;;;;;;4693145;30;20030;-72
2022/08/13 01:13:33;;;;;;;0.70;0.30;;;21.60;54.50;;;;;;4691027;30;20050;-73
2022/08/13 01:16:03;;;;;;;0.68;0.30;;;21.60;54.50;;;;;;4689424;30;20033;-72
2022/08/13 01:18:31;;;;;;;2.63;0.60;;;21.50;54.50;;;;;;4689923;30;20041;-72
2022/08/13 01:21:04;;;;;;;0.90;0.40;;;21.50;54.70;;;;;;4701473;30;20046;-72
2022/08/13 01:23:31;;;;;;;0.80;0.30;;;21.40;54.90;;;;;;4703500;30;20038;-73
2022/08/13 01:25:59;;;;;;;0.75;0.32;;;21.40;54.90;;;;;;4688384;30;20079;-72
2022/08/13 01:28:29;;;;;;;0.50;0.30;;;21.30;55.30;;;;;;4682110;30;20403;-73
2022/08/13 01:30:58;;;;;;;0.90;0.30;;;21.30;55.50;;;;;;4703056;30;20407;-72
2022/08/13 01:33:25;;;;;;;0.50;0.30;;;21.20;55.70;;;;;;4703308;30;20042;-72
2022/08/13 01:35:53;;;;;;;0.77;0.30;;;21.20;55.80;;;;;;4687046;30;20046;-72
2022/08/13 01:38:24;;;;;;;1.75;0.32;;;21.10;55.90;;;;;;4704397;30;20103;-72
2022/08/13 01:40:55;;;;;;;3.03;0.40;;;21.10;56.00;;;;;;4688376;30;20042;-72
2022/08/13 01:43:30;;;;;;;0.88;0.30;;;21.00;55.90;;;;;;4686887;30;20050;-72
2022/08/13 01:46:10;;;;;;;1.15;0.50;;;21.00;56.00;;;;;;4688309;30;20026;-72
2022/08/13 01:51:59;;;;;;;1.10;0.40;;;20.90;56.20;;;;;;4683826;30;20046;-74
2022/08/13 01:54:26;;;;;;;0.70;0.40;;;20.90;56.00;;;;;;4687019;30;20046;-72
2022/08/13 01:56:55;;;;;;;1.27;0.40;;;20.90;56.10;;;;;;4689533;30;20399;-72
2022/08/13 01:59:21;;;;;;;0.93;0.35;;;20.90;56.20;;;;;;4686481;30;20060;-73
2022/08/13 02:02:05;;;;;;;0.60;0.30;;;20.90;56.10;;;;;;4701617;30;20045;-72
2022/08/13 02:04:35;;;;;;;0.85;0.30;;;20.80;56.40;;;;;;4685938;30;20048;-72
2022/08/13 02:07:01;;;;;;;1.30;0.43;;;20.80;56.60;;;;;;4702709;30;20053;-72
2022/08/13 02:09:28;;;;;;;0.80;0.30;;;20.80;56.60;;;;;;4691570;30;20064;-72
2022/08/13 02:11:54;;;;;;;0.70;0.30;;;20.70;56.60;;;;;;4689689;30;20049;-72
2022/08/13 02:14:34;;;;;;;0.60;0.32;;;20.70;56.70;;;;;;4701154;30;20046;-72
2022/08/13 02:17:25;;;;;;;2.33;0.40;;;20.70;56.80;;;;;;4687969;30;20131;-72
2022/08/13 02:19:57;;;;;;;1.95;0.40;;;20.70;56.80;;;;;;4690209;30;20058;-72
2022/08/13 02:22:24;;;;;;;1.88;0.30;;;20.70;56.80;;;;;;4701255;30;20050;-72
2022/08/13 02:24:56;;;;;;;1.10;0.40;;;20.70;56.90;;;;;;4694539;30;20042;-72
2022/08/13 02:27:25;;;;;;;0.80;0.40;;;20.60;57.00;;;;;;4688663;30;20042;-72
2022/08/13 02:30:02;;;;;;;0.40;0.30;;;20.60;57.00;;;;;;4689213;30;20061;-72
2022/08/13 02:32:32;;;;;;;0.55;0.30;;;20.60;56.90;;;;;;4701409;30;20054;-72
2022/08/13 02:34:59;;;;;;;0.65;0.20;;;20.50;57.00;;;;;;4672016;30;20076;-72
2022/08/13 02:37:26;;;;;;;0.60;0.30;;;20.50;57.20;;;;;;4702836;30;20057;-72
2022/08/13 02:39:55;;;;;;;0.80;0.30;;;20.40;57.30;;;;;;4696327;30;20509;-73
2022/08/13 02:42:22;;;;;;;1.15;0.70;;;20.40;57.60;;;;;;4694667;30;20053;-72
2022/08/13 02:44:50;;;;;;;1.85;0.30;;;20.40;57.50;;;;;;4686102;30;20521;-72
2022/08/13 02:47:19;;;;;;;1.10;0.32;;;20.30;57.60;;;;;;4704613;30;20048;-72
2022/08/13 02:49:50;;;;;;;0.80;0.30;;;20.30;57.70;;;;;;4691348;30;20395;-72
2022/08/13 02:52:19;;;;;;;0.43;0.20;;;20.30;57.90;;;;;;4690132;30;20041;-72
2022/08/13 02:54:49;;;;;;;1.20;0.30;;;20.20;58.10;;;;;;4690323;30;20076;-72
2022/08/13 02:57:15;;;;;;;1.33;0.20;;;20.20;58.20;;;;;;4702855;30;20056;-72
2022/08/13 02:59:42;;;;;;;0.30;0.20;;;20.10;58.10;;;;;;4703164;30;20053;-72
2022/08/13 03:02:10;;;;;;;0.95;0.30;;;20.10;58.20;;;;;;4688016;30;20057;-72
2022/08/13 03:04:42;;;;;;;1.02;0.20;;;20.10;58.20;;;;;;4689909;30;20045;-75
2022/08/13 03:07:09;;;;;;;1.25;0.30;;;20.00;58.20;;;;;;4704187;30;20045;-75
2022/08/13 03:09:36;;;;;;;2.97;0.40;;;20.00;58.30;;;;;;4688604;30;20038;-75
2022/08/13 03:12:04;;;;;;;1.77;0.30;;;20.00;58.50;;;;;;4705285;30;20395;-75
2022/08/13 03:14:34;;;;;;;0.77;0.30;;;20.00;58.50;;;;;;4693034;30;20391;-75
2022/08/13 03:17:00;;;;;;;0.57;0.30;;;20.00;58.50;;;;;;4687794;30;20372;-75
2022/08/13 03:19:27;;;;;;;1.25;0.40;;;19.90;58.40;;;;;;4674125;30;20509;-75
2022/08/13 03:21:54;;;;;;;1.02;0.20;;;19.90;58.60;;;;;;4689771;30;20049;-75
2022/08/13 03:24:21;;;;;;;0.43;0.30;;;19.90;58.60;;;;;;4692405;30;20030;-74
2022/08/13 03:26:48;;;;;;;0.60;0.20;;;19.90;58.60;;;;;;4689437;30;20430;-75
2022/08/13 03:29:14;;;;;;;0.60;0.22;;;19.90;58.60;;;;;;4691204;30;20064;-75
2022/08/13 03:31:41;;;;;;;0.40;0.30;;;19.80;58.70;;;;;;4690796;30;20068;-75
2022/08/13 03:34:07;;;;;;;1.27;0.20;;;19.80;58.70;;;;;;4693358;30;20506;-75
2022/08/13 03:36:35;;;;;;;1.20;0.20;;;19.80;58.90;;;;;;4697303;30;20057;-75
2022/08/13 03:39:14;;;;;;;1.00;0.30;;;19.80;59.10;;;;;;4701021;30;20049;-75
2022/08/13 03:41:41;;;;;;;0.98;0.30;;;19.70;59.20;;;;;;4696296;30;20095;-75
2022/08/13 03:44:10;;;;;;;2.35;0.40;;;19.70;59.20;;;;;;4697185;30;20037;-75
2022/08/13 03:46:37;;;;;;;0.80;0.30;;;19.70;59.30;;;;;;4700601;30;20045;-75
2022/08/13 03:49:03;;;;;;;1.75;0.30;;;19.70;59.30;;;;;;4692788;30;20052;-75
2022/08/13 03:51:32;;;;;;;0.52;0.20;;;19.70;59.40;;;;;;4677719;30;20041;-75
2022/08/13 03:53:59;;;;;;;0.63;0.22;;;19.70;59.40;;;;;;4697073;30;20060;-75
2022/08/13 03:56:32;;;;;;;1.85;0.30;;;19.60;59.40;;;;;;4686955;30;20057;-75
2022/08/13 03:59:00;;;;;;;1.42;0.30;;;19.60;59.50;;;;;;4698797;30;20061;-75
2022/08/13 04:01:29;;;;;;;1.20;0.40;;;19.60;59.60;;;;;;4697274;30;20049;-75
2022/08/13 04:03:56;;;;;;;1.15;0.30;;;19.60;59.80;;;;;;4708893;30;20042;-75
2022/08/13 04:06:25;;;;;;;0.40;0.20;;;19.60;59.80;;;;;;4709281;30;20556;-75
2022/08/13 04:08:53;;;;;;;0.40;0.28;;;19.60;59.90;;;;;;4693433;30;20037;-75
2022/08/13 04:11:25;;;;;;;1.25;0.30;;;19.50;60.00;;;;;;4697200;30;20045;-75
2022/08/13 04:13:51;;;;;;;0.80;0.20;;;19.50;60.20;;;;;;4708254;30;20507;-75
2022/08/13 04:16:23;;;;;;;0.50;0.20;;;19.50;60.10;;;;;;4698817;30;20053;-75
2022/08/13 04:18:54;;;;;;;1.30;0.30;;;19.50;60.10;;;;;;4709608;30;20052;-75
2022/08/13 04:21:24;;;;;;;1.05;0.30;;;19.50;60.20;;;;;;4696716;30;20053;-75
2022/08/13 04:23:52;;;;;;;1.23;0.40;;;19.40;60.30;;;;;;4695104;30;20029;-75
2022/08/13 04:26:23;;;;;;;0.90;0.30;;;19.50;60.30;;;;;;4699170;30;20041;-75
2022/08/13 04:28:53;;;;;;;0.60;0.20;;;19.40;60.20;;;;;;4711742;30;20495;-75
2022/08/13 04:31:26;;;;;;;2.67;0.22;;;19.40;60.10;;;;;;4699125;30;20498;-72
2022/08/13 04:33:53;;;;;;;0.40;0.20;;;19.40;60.30;;;;;;4678920;30;20054;-72
2022/08/13 04:36:20;;;;;;;1.35;0.30;;;19.40;60.50;;;;;;4694496;30;20068;-72
2022/08/13 04:38:46;;;;;;;1.33;0.30;;;19.40;60.50;;;;;;4693675;30;20064;-72
2022/08/13 04:41:13;;;;;;;0.40;0.20;;;19.40;60.40;;;;;;4693714;30;20054;-72
2022/08/13 04:43:39;;;;;;;1.05;0.30;;;19.40;60.50;;;;;;4690813;30;20046;-72
2022/08/13 04:46:06;;;;;;;2.80;0.30;;;19.50;60.60;;;;;;4706275;30;20066;-72
2022/08/13 04:48:33;;;;;;;1.60;0.35;;;19.50;60.50;;;;;;4692012;30;20038;-72
2022/08/13 04:51:01;;;;;;;4.43;0.38;;;19.60;60.40;;;;;;4693943;30;20046;-72
2022/08/13 04:53:32;;;;;;;1.25;0.30;;;19.70;60.50;;;;;;4691120;30;20111;-72
2022/08/13 04:56:01;;;;;;;4.70;0.35;;;19.80;60.60;;;;;;4691747;30;20033;-72
2022/08/13 04:58:33;;;;;;;1.02;0.30;;;19.90;60.40;;;;;;4697137;30;20050;-72
2022/08/13 05:01:01;;;;;;;0.73;0.30;;;19.90;60.30;;;;;;4690928;30;20052;-72
2022/08/13 05:03:29;;;;;;;0.70;0.30;;;20.00;60.20;;;;;;4692084;30;20048;-72
2022/08/13 05:05:56;;;;;;;0.85;0.30;;;20.10;60.20;;;;;;4691952;30;20399;-72
2022/08/13 05:08:23;;;;;;;2.22;0.32;;;20.30;60.00;;;;;;4708689;30;20045;-72
2022/08/13 05:10:50;;;;;;;1.27;0.30;;;20.50;59.70;;;;;;4692569;30;20499;-72
2022/08/13 05:13:27;;;;;;;0.80;0.45;;;20.70;59.50;;;;;;4691844;30;20038;-72
2022/08/13 05:15:58;;;;;;;0.50;0.30;;;20.70;59.50;;;;;;4692058;30;20060;-72
2022/08/13 05:18:26;;;;;;;1.05;0.40;;;20.70;59.50;;;;;;4706744;30;20061;-72
2022/08/13 05:20:53;;;;;;;0.50;0.30;;;20.70;59.80;;;;;;4705529;30;20057;-72
2022/08/13 05:23:22;;;;;;;0.73;0.30;;;20.60;59.80;;;;;;4691963;30;20030;-72
2022/08/13 05:25:54;;;;;;;0.95;0.30;;;20.60;60.00;;;;;;4692092;30;20395;-72
2022/08/13 05:28:22;;;;;;;1.92;0.30;;;20.60;60.00;;;;;;4706532;30;20487;-72
2022/08/13 05:30:48;;;;;;;0.90;0.30;;;20.60;60.30;;;;;;4699867;30;20057;-72
2022/08/13 05:33:23;;;;;;;0.50;0.25;;;20.60;60.30;;;;;;4698160;30;20053;-72
2022/08/13 05:35:56;;;;;;;0.57;0.22;;;20.60;60.60;;;;;;4699134;30;20034;-72
2022/08/13 05:38:41;;;;;;;0.77;0.30;;;20.60;60.50;;;;;;4708659;30;20053;-72
2022/08/13 05:41:34;;;;;;;2.00;0.40;;;20.70;60.60;;;;;;4708382;30;20045;-72
2022/08/13 05:44:42;;;;;;;;;;;;;;;;;;;;;
2022/08/13 05:47:24;;;;;;;2.25;0.30;;;20.90;60.40;;;;;;4697321;30;20045;-72
2022/08/13 05:49:54;;;;;;;1.20;0.40;;;21.00;60.10;;;;;;4676322;30;20065;-71
2022/08/13 05:52:40;;;;;;;1.05;0.40;;;21.20;59.90;;;;;;4674614;30;20060;-72
2022/08/13 05:55:14;;;;;;;0.80;0.32;;;21.40;59.70;;;;;;4695468;30;20614;-73
2022/08/13 05:57:48;;;;;;;1.85;0.40;;;21.60;59.50;;;;;;4693102;30;20045;-74
2022/08/13 06:04:26;;;;;;;2.13;0.30;;;22.00;58.70;;;;;;4593213;31;20070;-72
2022/08/13 06:07:29;;;;;;;0.47;0.30;;;22.30;58.50;;;;;;4618288;31;20532;-72
2022/08/13 06:09:58;;;;;;;1.65;0.30;;;22.50;58.20;;;;;;4659563;30;20046;-72
2022/08/13 06:12:29;;;;;;;0.95;0.50;;;22.60;58.00;;;;;;4672005;30;20042;-72
2022/08/13 06:15:09;;;;;;;3.33;0.50;;;22.70;57.70;;;;;;4672741;30;20050;-72
2022/08/13 06:17:46;;;;;;;1.67;0.45;;;22.90;57.60;;;;;;4650347;30;20057;-72
2022/08/13 06:20:20;;;;;;;0.95;0.40;;;23.00;57.30;;;;;;4674634;30;20043;-72
2022/08/13 06:22:52;;;;;;;2.05;0.50;;;23.10;57.30;;;;;;4661854;30;20054;-72
2022/08/13 06:26:00;;;;;;;0.82;0.30;;;23.20;57.00;;;;;;4660680;30;20053;-71
2022/08/13 06:28:30;;;;;;;2.35;0.30;;;23.30;56.80;;;;;;4629867;30;20420;-72
2022/08/13 06:31:30;;;;;;;0.88;0.50;;;23.50;56.70;;;;;;4666800;30;20050;-72
2022/08/13 06:33:59;;;;;;;1.08;0.30;;;23.60;56.60;;;;;;4667304;30;20037;-72
2022/08/13 06:36:29;;;;;;;0.65;0.35;;;23.80;56.20;;;;;;4676262;30;20045;-72
2022/08/13 06:39:03;;;;;;;0.98;0.40;;;24.10;55.90;;;;;;4674157;30;20514;-72
2022/08/13 06:41:34;;;;;;;1.15;0.35;;;24.30;55.60;;;;;;4684566;30;20167;-72
2022/08/13 06:44:05;;;;;;;3.17;0.50;;;24.50;55.40;;;;;;4659884;30;20049;-72
2022/08/13 06:46:32;;;;;;;0.85;0.40;;;24.60;55.00;;;;;;4683009;30;20053;-72
2022/08/13 06:49:00;;;;;;;1.38;0.38;;;24.90;54.90;;;;;;4685847;30;20054;-72
2022/08/13 06:51:26;;;;;;;1.27;0.40;;;25.30;54.80;;;;;;4697802;30;20049;-72
2022/08/13 06:53:54;;;;;;;1.63;0.40;;;25.70;53.80;;;;;;4712681;30;20029;-72
2022/08/13 06:56:24;;;;;;;0.77;0.40;;;25.90;53.30;;;;;;4712446;30;20181;-72
2022/08/13 06:58:52;;;;;;;0.98;0.40;;;26.00;53.30;;;;;;4715362;30;20483;-72
2022/08/13 07:01:24;;;;;;;0.80;0.40;;;26.00;53.10;;;;;;4709599;30;20037;-72
2022/08/13 07:03:53;;;;;;;1.63;0.32;;;25.90;53.20;;;;;;4708082;30;20056;-72
2022/08/13 07:06:24;;;;;;;2.00;0.38;;;26.00;53.30;;;;;;4703592;30;20044;-72
2022/08/13 07:08:57;;;;;;;0.90;0.30;;;26.00;53.00;;;;;;4710717;30;20033;-72
2022/08/13 07:11:28;;;;;;;0.85;0.30;;;26.20;52.80;;;;;;4713453;30;20037;-72
2022/08/13 07:13:57;;;;;;;1.92;0.40;;;26.50;52.60;;;;;;4700157;30;20501;-72
2022/08/13 07:16:30;;;;;;;1.25;0.40;;;26.60;52.40;;;;;;4715835;30;20049;-72
2022/08/13 07:18:59;;;;;;;1.40;0.40;;;26.60;52.40;;;;;;4698125;30;20504;-72
2022/08/13 07:21:26;;;;;;;1.40;0.43;;;26.60;52.50;;;;;;4700514;30;20060;-72
2022/08/13 07:23:55;;;;;;;0.60;0.40;;;26.50;52.60;;;;;;4708860;30;20040;-73
2022/08/13 07:26:24;;;;;;;0.70;0.30;;;26.50;53.40;;;;;;4706159;30;20037;-72
2022/08/13 07:28:51;;;;;;;2.47;0.40;;;26.50;52.80;;;;;;4708753;30;20049;-72
2022/08/13 07:31:23;;;;;;;2.92;0.40;;;26.60;52.90;;;;;;4708063;30;20049;-72
2022/08/13 07:33:51;;;;;;;;;;;26.60;52.80;;;;;;4690631;30;20041;-72
2022/08/13 07:36:24;;;;;;;0.82;0.40;;;26.60;52.70;;;;;;4692041;30;19915;-72
2022/08/13 07:38:54;;;;;;;1.25;0.43;;;26.60;52.80;;;;;;4704269;30;20053;-72
2022/08/13 07:41:24;;;;;;;0.73;0.30;;;26.80;53.10;;;;;;4705776;30;20048;-72
2022/08/13 07:43:51;;;;;;;0.40;0.30;;;26.80;52.90;;;;;;4690691;30;20048;-72
2022/08/13 07:46:19;;;;;;;1.30;0.45;;;27.00;52.90;;;;;;4709862;30;20048;-72
2022/08/13 07:48:52;;;;;;;1.08;0.45;;;27.10;52.70;;;;;;4693647;30;20042;-72
2022/08/13 07:51:21;;;;;;;1.40;0.40;;;27.10;52.60;;;;;;4698484;30;20056;-72
2022/08/13 07:53:55;;;;;;;0.75;0.40;;;27.20;52.60;;;;;;4693489;30;20046;-72
2022/08/13 07:56:29;;;;;;;0.98;0.40;;;27.30;52.60;;;;;;4695827;30;20057;-72
2022/08/13 07:59:07;;;;;;;0.63;0.40;;;27.30;52.60;;;;;;4694974;30;20056;-72
2022/08/13 08:02:06;;;;;;;1.75;0.40;;;27.40;52.50;;;;;;4693077;30;20045;-72
2022/08/13 08:04:37;;;;;;;1.40;0.38;;;27.50;52.60;;;;;;4691774;30;20038;-72
2022/08/13 08:07:05;;;;;;;0.50;0.30;;;27.70;52.50;;;;;;4708920;30;20045;-72
2022/08/13 08:09:34;;;;;;;0.70;0.30;;;27.80;52.20;;;;;;4695785;30;20038;-73
2022/08/13 08:12:33;;;;;;;1.23;0.30;;;27.90;51.90;;;;;;4694497;30;20058;-72
2022/08/13 08:15:11;;;;;;;1.00;0.32;;;27.90;51.80;;;;;;4691647;30;20046;-72
2022/08/13 08:17:38;;;;;;;2.05;0.32;;;28.00;51.60;;;;;;4694221;30;20170;-72
2022/08/13 08:20:08;;;;;;;1.23;0.40;;;28.10;51.50;;;;;;4696465;30;20052;-72
2022/08/13 08:22:43;;;;;;;1.48;0.30;;;28.40;51.50;;;;;;4696598;30;20379;-72
2022/08/13 08:25:18;;;;;;;0.98;0.50;;;28.50;51.20;;;;;;4709408;30;20491;-72
2022/08/13 08:27:47;;;;;;;1.65;0.38;;;28.60;51.20;;;;;;4694437;30;20050;-72
2022/08/13 08:30:23;;;;;;;0.90;0.40;;;28.70;51.00;;;;;;4698067;30;20045;-72
2022/08/13 08:32:54;;;;;;;0.98;0.40;;;28.80;50.50;;;;;;4679352;30;20066;-72
2022/08/13 08:35:22;;;;;;;1.23;0.40;;;28.90;50.40;;;;;;4696841;30;20049;-72
2022/08/13 08:43:35;;;;;;;1.45;0.50;;;29.10;49.50;;;;;;4693014;30;20053;-72
2022/08/13 08:46:03;;;;;;;1.13;0.38;;;29.20;49.60;;;;;;4694056;30;20063;-73
2022/08/13 08:48:32;;;;;;;0.80;0.38;;;29.30;49.50;;;;;;4708341;30;20038;-72
2022/08/13 08:51:00;;;;;;;1.40;0.40;;;29.30;49.30;;;;;;4693060;30;20045;-73
2022/08/13 08:53:28;;;;;;;0.60;0.30;;;29.40;49.50;;;;;;4679761;30;20048;-72
2022/08/13 08:55:55;;;;;;;0.68;0.30;;;29.60;49.40;;;;;;4691811;30;20056;-73
2022/08/13 08:58:23;;;;;;;1.50;0.40;;;29.80;49.30;;;;;;4693496;30;20102;-73
2022/08/13 09:00:56;;;;;;;0.88;0.30;;;29.80;49.20;;;;;;4692376;30;20734;-73
2022/08/13 09:03:27;;;;;;;1.40;0.50;;;29.90;49.20;;;;;;4694605;30;20384;-72
2022/08/13 09:05:55;;;;;;;0.52;0.30;;;30.00;48.50;;;;;;4693075;30;20033;-73
2022/08/13 09:08:24;;;;;;;1.20;0.50;;;30.10;48.80;;;;;;4694478;30;20034;-75
2022/08/13 09:10:52;;;;;;;3.92;0.52;;;30.10;48.40;;;;;;4692192;30;20407;-74
2022/08/13 09:13:21;;;;;;;0.60;0.40;;;30.20;48.20;;;;;;4705522;30;20029;-74
2022/08/13 09:15:50;;;;;;;0.77;0.40;;;30.30;47.90;;;;;;4693856;30;20486;-75
2022/08/13 09:18:19;;;;;;;3.03;0.40;;;30.40;47.90;;;;;;4694722;30;20467;-74
2022/08/13 09:20:46;;;;;;;1.83;0.40;;;30.50;47.60;;;;;;4696181;30;20059;-75
2022/08/13 09:23:14;;;;;;;1.77;0.40;;;30.60;48.30;;;;;;4680161;30;20056;-75
2022/08/13 09:25:49;;;;;;;0.90;0.40;;;30.70;47.50;;;;;;4694172;30;20041;-75
2022/08/13 09:28:22;;;;;;;0.90;0.40;;;30.80;47.60;;;;;;4693216;30;20045;-75
2022/08/13 09:30:50;;;;;;;1.30;0.30;;;30.80;47.50;;;;;;4698925;30;20048;-75
2022/08/13 09:33:23;;;;;;;1.40;0.30;;;31.00;47.50;;;;;;4717915;30;20048;-74
2022/08/13 09:35:54;;;;;;;1.73;0.40;;;31.10;47.30;;;;;;4698332;30;20063;-74
2022/08/13 09:38:34;;;;;;;1.38;0.30;;;31.20;47.20;;;;;;4715186;30;20033;-74
2022/08/13 09:41:30;;;;;;;1.25;0.60;;;31.30;46.90;;;;;;4718926;30;20061;-74
2022/08/13 09:43:58;;;;;;;1.02;0.50;;;31.30;46.50;;;;;;4700078;30;20045;-74
2022/08/13 09:46:25;;;;;;;0.80;0.32;;;31.50;46.60;;;;;;4712610;30;20037;-74
2022/08/13 09:48:58;;;;;;;1.52;0.40;;;31.70;46.50;;;;;;4710409;30;20038;-75
2022/08/13 09:51:33;;;;;;;0.95;0.35;;;31.80;46.40;;;;;;4708019;30;20037;-75
2022/08/13 09:54:01;;;;;;;2.75;0.90;;;31.90;46.10;;;;;;4711308;30;20370;-74
2022/08/13 09:56:36;;;;;;;2.72;0.55;;;32.00;46.00;;;;;;4705891;30;20045;-74
2022/08/13 09:59:05;;;;;;;1.25;0.70;;;32.10;45.70;;;;;;4701586;30;20407;-74
2022/08/13 10:01:34;;;;;;;0.90;0.30;;;32.30;45.60;;;;;;4699063;30;20065;-74
2022/08/13 10:04:01;;;;;;;2.35;0.40;;;32.50;45.30;;;;;;4707963;30;20037;-74
2022/08/13 10:09:39;;;;;;;0.93;0.40;;;32.60;44.40;;;;;;4694532;30;20215;-75
2022/08/13 10:12:08;;;;;;;0.88;0.40;;;32.70;44.50;;;;;;4682263;30;20062;-75
2022/08/13 10:14:35;;;;;;;1.00;0.50;;;32.70;44.20;;;;;;4693439;30;20053;-74
2022/08/13 10:17:14;;;;;;;1.20;0.47;;;32.80;43.90;;;;;;4695477;30;20033;-74
2022/08/13 10:19:44;;;;;;;2.10;0.40;;;32.80;44.10;;;;;;4695365;30;20054;-74
2022/08/13 10:22:10;;;;;;;0.52;0.30;;;32.90;44.00;;;;;;4695508;30;20045;-74
2022/08/13 10:24:38;;;;;;;1.20;0.40;;;33.10;43.70;;;;;;4695395;30;20435;-74
2022/08/13 10:27:08;;;;;;;0.63;0.30;;;33.10;43.20;;;;;;4712667;30;20037;-74
2022/08/13 10:29:37;;;;;;;1.10;0.30;;;33.10;42.70;;;;;;4698112;30;20046;-74
2022/08/13 10:32:06;;;;;;;0.32;0.20;;;33.30;43.00;;;;;;4707821;30;20057;-74
2022/08/13 10:34:32;;;;;;;0.82;0.52;;;33.40;42.60;;;;;;4692580;30;20391;-74
2022/08/13 10:36:59;;;;;;;3.75;2.05;;;33.60;42.40;;;;;;4701819;30;20033;-74
2022/08/13 10:39:26;;;;;;;2.72;2.00;;;33.80;42.40;;;;;;4706486;30;20041;-74
2022/08/13 10:41:52;;;;;;;0.98;0.60;;;34.00;42.20;;;;;;4695579;30;20387;-75
2022/08/13 10:44:19;;;;;;;1.73;0.40;;;34.30;42.30;;;;;;4704030;30;20041;-75
2022/08/13 10:46:46;;;;;;;0.50;0.30;;;34.50;42.20;;;;;;4686253;30;20048;-75
2022/08/13 10:49:13;;;;;;;1.30;0.30;;;34.80;42.60;;;;;;4714680;30;20041;-75
2022/08/13 10:51:40;;;;;;;1.30;0.35;;;35.10;41.10;;;;;;4715411;30;20041;-75
2022/08/13 10:54:07;;;;;;;1.20;0.40;;;35.40;40.50;;;;;;4712538;30;20048;-76
2022/08/13 10:56:34;;;;;;;1.10;0.50;;;35.70;40.30;;;;;;4699627;30;20467;-75
2022/08/13 10:59:03;;;;;;;2.10;0.30;;;35.90;40.00;;;;;;4712807;30;20052;-76
2022/08/13 11:01:30;;;;;;;0.80;0.30;;;36.00;38.70;;;;;;4680361;30;20053;-76
2022/08/13 11:04:01;;;;;;;0.60;0.30;;;36.10;38.70;;;;;;4708098;30;20045;-76
2022/08/13 11:06:28;;;;;;;1.90;0.32;;;36.20;38.80;;;;;;4710662;30;20033;-74
2022/08/13 11:08:57;;;;;;;0.82;0.60;;;36.50;38.70;;;;;;4700433;30;20486;-74
2022/08/13 11:11:24;;;;;;;1.30;0.30;;;36.80;38.70;;;;;;4707143;30;20034;-75
2022/08/13 11:13:51;;;;;;;1.08;0.50;;;37.10;38.20;;;;;;4700700;30;20064;-74
2022/08/13 11:19:14;;;;;;;0.85;0.40;;;37.30;37.00;;;;;;4695849;30;20049;-75
2022/08/13 11:21:45;;;;;;;1.88;1.02;;;37.40;36.80;;;;;;4713379;30;20057;-75
2022/08/13 11:24:12;;;;;;;1.40;0.50;;;37.30;36.70;;;;;;4713846;30;20056;-75
2022/08/13 11:26:40;;;;;;;1.00;0.30;;;37.50;37.20;;;;;;4693039;30;20344;-76
2022/08/13 11:29:07;;;;;;;1.33;0.30;;;37.80;37.20;;;;;;4709766;30;20045;-76
2022/08/13 11:31:33;;;;;;;0.60;0.40;;;38.20;36.80;;;;;;4711632;30;20396;-76
2022/08/13 11:34:00;;;;;;;1.85;0.40;;;38.70;37.10;;;;;;4711713;30;20052;-76
2022/08/13 11:36:32;;;;;;;2.38;0.40;;;39.10;36.20;;;;;;4699343;30;20042;-75
2022/08/13 11:39:06;;;;;;;1.65;0.40;;;39.30;35.30;;;;;;4686340;30;20056;-75
2022/08/13 11:41:35;;;;;;;0.57;0.35;;;39.40;35.50;;;;;;4711430;30;20048;-76
2022/08/13 11:44:04;;;;;;;1.40;0.40;;;39.60;35.50;;;;;;4686284;30;20057;-76
2022/08/13 11:46:31;;;;;;;0.85;0.30;;;39.90;34.70;;;;;;4711549;30;20053;-75
2022/08/13 11:48:59;;;;;;;0.73;0.30;;;39.90;34.10;;;;;;4714016;30;20037;-75
2022/08/13 11:51:27;;;;;;;0.50;0.30;;;40.00;34.10;;;;;;4709056;30;20037;-75
2022/08/13 11:53:58;;;;;;;1.17;0.30;;;40.10;34.10;;;;;;4695309;30;20052;-75
2022/08/13 11:56:25;;;;;;;1.00;0.30;;;40.30;34.00;;;;;;4697299;30;20042;-75
2022/08/13 11:58:52;;;;;;;2.17;0.30;;;40.60;33.60;;;;;;4711935;30;20038;-75
2022/08/13 12:01:27;;;;;;;0.50;0.30;;;40.80;33.20;;;;;;4699058;30;20362;-75
2022/08/13 12:04:02;;;;;;;1.15;0.30;;;41.00;33.00;;;;;;4689108;30;20041;-75
2022/08/13 12:06:30;;;;;;;0.55;0.30;;;41.20;32.60;;;;;;4696324;30;20038;-75
2022/08/13 12:09:07;;;;;;;0.85;0.30;;;41.40;32.40;;;;;;4712438;30;20051;-75
2022/08/13 12:11:36;;;;;;;1.02;0.20;;;41.50;32.10;;;;;;4709260;30;20061;-75
2022/08/13 12:14:16;;;;;;;0.55;0.20;;;41.60;32.60;;;;;;4701046;30;20069;-75
2022/08/13 12:16:43;;;;;;;0.40;0.30;;;41.90;32.60;;;;;;4712563;30;20418;-75
2022/08/13 12:19:21;;;;;;;2.33;0.30;;;42.30;32.30;;;;;;4698878;30;20052;-75
2022/08/13 12:21:54;;;;;;;0.70;0.30;;;42.40;31.40;;;;;;4711672;30;20060;-74
2022/08/13 12:24:26;;;;;;;0.98;0.30;;;42.40;31.10;;;;;;4673542;30;20041;-75
2022/08/13 12:26:54;;;;;;;0.75;0.30;;;42.40;31.00;;;;;;4689573;30;20049;-74
2022/08/13 12:29:21;;;;;;;1.13;0.30;;;42.60;31.20;;;;;;4709589;30;20037;-75
2022/08/13 12:31:48;;;;;;;1.00;0.30;;;42.80;30.80;;;;;;4707809;30;20068;-74
2022/08/13 12:34:14;;;;;;;0.63;0.30;;;42.90;30.60;;;;;;4709956;30;20052;-74
2022/08/13 12:36:40;;;;;;;1.10;0.40;;;43.10;30.40;;;;;;4711952;30;20037;-76
2022/08/13 12:39:07;;;;;;;1.20;0.40;;;43.10;30.50;;;;;;4708486;30;20045;-75
2022/08/13 12:41:34;;;;;;;1.63;0.30;;;43.30;30.80;;;;;;4683231;30;20137;-76
2022/08/13 12:44:00;;;;;;;2.60;0.40;;;43.70;31.00;;;;;;4694256;30;20045;-76
2022/08/13 12:46:26;;;;;;;0.80;0.50;;;44.10;30.80;;;;;;4699623;30;20378;-76
2022/08/13 12:48:53;;;;;;;1.90;0.40;;;44.50;30.50;;;;;;4711942;30;20042;-76
2022/08/13 12:51:19;;;;;;;1.48;0.40;;;44.70;30.00;;;;;;4688184;30;20398;-76
2022/08/13 12:53:46;;;;;;;0.93;0.40;;;44.80;29.70;;;;;;4713310;30;20064;-76
2022/08/13 12:56:12;;;;;;;0.93;0.30;;;44.90;29.70;;;;;;4711116;30;20045;-76
2022/08/13 12:58:39;;;;;;;0.65;0.30;;;45.10;29.90;;;;;;4713842;30;20461;-76
2022/08/13 13:01:05;;;;;;;1.45;0.32;;;45.10;29.40;;;;;;4712844;30;20486;-76
2022/08/13 13:03:32;;;;;;;0.65;0.30;;;44.90;29.40;;;;;;4710030;30;20041;-77
2022/08/13 13:05:58;;;;;;;1.40;0.40;;;44.90;29.60;;;;;;4714149;30;20052;-78
2022/08/13 13:08:27;;;;;;;0.70;0.30;;;44.90;29.50;;;;;;4698131;30;20053;-76
2022/08/13 13:10:56;;;;;;;0.70;0.40;;;45.00;29.40;;;;;;4696464;30;20029;-77
2022/08/13 13:13:24;;;;;;;0.40;0.35;;;45.10;29.60;;;;;;4696586;30;20052;-77
2022/08/13 13:15:52;;;;;;;0.30;0.30;;;45.20;29.70;;;;;;4698329;30;20506;-77
2022/08/13 13:18:21;;;;;;;1.05;0.30;;;45.40;29.50;;;;;;4710632;30;20044;-77
2022/08/13 13:20:49;;;;;;;1.52;0.40;;;45.50;29.20;;;;;;4696452;30;20056;-77
2022/08/13 13:23:18;;;;;;;0.65;0.30;;;45.40;29.10;;;;;;4696592;30;20045;-77